Create Custom Reports and Graphics: Custom Report

Belmont 8000'

Squaw Valley

5/20/22 4:00 AM (-07:00)
Updated Every 15 Minutes
Temp 23.2 °F   26.2
RH 69 %   19
Dew Pt 14.7 °F   17.0
Wet Bulb 20.4 °F   20.2
Wind Dir ENE | 78 °
Wind Spd 4.7 mph   6.5
Wind Gust 7.5 mph   9.0
WindChill 18.1 °F   27.6
Daily Min Temp 23.2 °F   24.6
Daily Max Temp 35.6 °F   16.2
Latest Rain 0.00 In
Daily Rain 0.00 In
New Snow 0.0 in
SnowDepth 77.7 in

Last 24 Hours

OV-Belmont 8000'

Hourly Data | America/Los_Angeles
as of 5/20/22 4:13 AM PDT
Date & Time Temp (°F) RH (%) Dew Pt (°F) Wet Bulb (°F) Wind Dir (°) Wind Spd (mph) Wind Gust (mph) WindChill (°F) Latest Rain (In) New Snow (in) SnowDepth (in) Daily Min Temp (°F) Daily Max Temp (°F) Daily Rain (In)
5/20/22 - 0400 23.2 69 14.7 20.4 ENE | 71 5.2 10.9 18.5 0.00 0.0 77.7 23.2 35.6 0.00
5/20/22 - 0300 25.9 60 14.0 21.9 E | 83 4.1 9.4 23.0 0.00 0.0 77.7 25.9 35.6 0.00
5/20/22 - 0200 28.1 53 13.0 23.0 ENE | 64 2.1 10.6 27.8 0.00 0.0 77.8 28.0 35.6 0.00
5/20/22 - 0100 30.2 43 10.2 23.6 ENE | 57 2.1 10.4 31.8 0.00 0.0 77.7 30.2 35.6 0.00
5/20/22 - 0000 35.6 34 10.2 26.8 N | 351 2.0 10.4 35.9 0.00 0.0 77.7 35.6 57.0 0.00
5/19/22 - 2300 38.4 26 6.1 27.6 W | 272 2.6 11.5 37.7 0.00 0.0 77.6 38.4 57.0 0.00
5/19/22 - 2200 39.1 28 8.5 28.5 SW | 236 6.4 19.4 36.7 0.00 0.0 77.7 38.8 57.0 0.00
5/19/22 - 2100 41.5 24 7.1 29.6 SW | 220 13.9 21.8 35.0 0.00 0.0 77.7 41.5 57.0 0.00
5/19/22 - 2000 43.1 21 5.9 30.3 SW | 218 15.8 29.1 37.4 0.00 0.0 77.7 43.0 57.0 0.00
5/19/22 - 1900 45.9 17 3.4 31.3 SW | 224 18.1 31.0 40.6 0.00 0.0 77.7 45.8 57.0 0.00
5/19/22 - 1800 48.7 20 9.3 33.9 SW | 223 18.2 29.1 43.5 0.00 0.0 77.6 47.9 57.0 0.00
5/19/22 - 1700 50.4 52 33.5 41.8 SW | 220 15.6 27.4 46.3 0.00 0.0 78.0 47.9 57.0 0.00
5/19/22 - 1600 51.4 54 35.2 42.9 SW | 216 15.0 27.0 48.6 0.00 0.0 77.8 47.9 57.0 0.00
5/19/22 - 1500 52.8 54 36.5 44.1 SW | 220 13.7 24.6 50.6 0.00 0.0 78.6 47.9 57.0 0.00
5/19/22 - 1400 53.5 55 37.8 45.0 SW | 216 13.4 29.2 53.6 0.00 0.0 79.2 47.9 57.0 0.00
5/19/22 - 1300 56.5 50 38.1 46.4 SW | 218 12.2 26.0 55.7 0.00 0.0 79.7 47.9 57.0 0.00
5/19/22 - 1200 56.1 46 35.8 45.3 SW | 224 11.2 23.2 55.8 0.00 0.0 79.7 47.9 57.0 0.00
5/19/22 - 1100 54.3 48 34.8 44.0 SW | 221 10.6 19.2 51.8 0.00 0.0 79.8 47.9 54.3 0.00
5/19/22 - 1000 52.5 51 35.1 43.4 WSW | 247 7.9 19.7 49.7 0.00 0.0 79.8 47.9 52.8 0.00
5/19/22 - 0900 51.5 51 33.9 42.4 WSW | 248 7.5 21.4 47.6 0.00 0.0 80.4 47.9 51.8 0.00
5/19/22 - 0800 49.9 52 32.9 41.3 W | 280 8.4 19.2 47.4 0.00 0.0 80.4 47.9 51.8 0.00
5/19/22 - 0700 50.3 50 32.6 41.3 NW | 319 9.6 20.1 46.0 0.00 0.0 80.3 47.9 51.8 0.00
5/19/22 - 0600 50.0 48 31.3 40.7 NW | 326 10.5 17.8 45.4 0.00 0.0 80.3 47.9 51.8 0.00
5/19/22 - 0500 49.1 50 31.3 40.3 NNW | 327 10.7 19.2 45.3 0.00 0.0 80.4 47.9 51.8 0.00
5/19/22 - 0400 49.5 50 31.7 40.6 NNW | 333 12.5 21.5 45.6 0.00 0.0 80.3 47.9 51.8 0.00
Max 56.5 69 38.1 46.4 - 18.2 31.0 55.8 0.00 0.0 80.4 47.9 57.0 0.00
Avg 45.1 44 23.3 35.8 - 10.0 20.4 42.3 0.00 0.0 78.8 - - -
Min 23.2 17 3.4 20.4 - 2.0 9.4 18.5 0.00 0.0 77.6 23.2 35.6 0.00
Total - - - - - - - - 0.00 - - - - -

Last 30 Days

OV-Belmont 8000'

Daily Data | America/Los_Angeles
as of 5/20/22 4:13 AM PDT
Date Daily Max Temp (°F) Time of Max Temp Daily Min Temp (°F) Time of Min Temp Daily Rain (In) Seasonal Rainfall (In) New Snow (in) SnowDepth (in) Wind Spd (mph) Daily Max Wind (mph) Time of Max Wind Max Wind Dir (°) Max RH (%) Min RH (%) Wet Bulb (°F) WetB Hrs <28F (hrs) MinBV Day (V)
5/19/22 57.0 1147 35.6 2359 0.00 173.20 0.0 77.7 10.9 31.0 1841 SW | 214 56 17 38.8 1.3 12.9
5/18/22 71.6 1404 46.3 0304 0.00 173.20 0.0 80.3 4.0 23.1 1816 WNW | 291 59 18 42.3 0.0 13.0
5/17/22 64.4 1455 40.3 0444 0.00 173.20 0.0 82.9 2.7 13.3 1532 NW | 309 63 12 37.9 0.0 12.9
5/16/22 57.0 1539 43.0 2248 0.00 173.20 0.0 84.1 8.6 25.7 0341 SSW | 200 63 12 37.0 0.0 12.9
5/15/22 59.9 1123 45.4 2111 0.00 173.20 0.0 86.7 7.3 22.4 1711 SSW | 209 79 26 42.2 0.0 12.9
5/14/22 65.5 1532 40.6 0054 0.00 173.20 0.0 89.2 4.1 14.0 0321 SSE | 150 69 22 40.6 0.0 12.9
5/13/22 53.8 1411 31.4 0313 0.00 173.20 3.0 90.6 8.8 23.1 1835 SSW | 206 80 27 34.5 0.8 12.9
5/12/22 42.1 1410 23.4 0109 0.00 173.20 5.8 92.3 9.9 26.2 1639 SSW | 208 96 33 26.8 15.5 12.9
5/11/22 36.6 1444 14.7 0626 0.00 173.20 9.6 95.4 4.7 17.7 2144 ENE | 78 98 48 21.9 22.6 13.0
5/10/22 25.1 1218 14.3 2107 0.46 173.20 16.7 100.3 6.1 21.7 0009 SW | 217 97 80 17.6 24.0 13.0
5/9/22 25.0 1137 14.4 0509 0.70 172.70 16.6 100.6 9.2 26.6 0156 SSW | 213 100 81 17.2 24.0 13.0
5/8/22 28.4 0244 16.0 2332 0.32 172.00 9.0 91.1 13.9 38.6 1308 SSW | 204 100 62 21.1 24.0 13.1
5/7/22 41.7 1309 27.8 2358 0.00 171.70 0.0 87.4 11.6 28.2 0232 E | 89 91 37 29.9 6.6 12.9
5/6/22 46.7 1222 34.8 2358 0.08 171.70 0.0 88.7 13.3 43.0 0814 SW | 216 100 67 37.5 0.0 12.9
5/5/22 47.0 1351 36.2 2353 0.00 171.60 0.0 91.2 15.3 48.4 1601 SE | 145 99 43 35.5 0.0 12.9
5/4/22 63.6 1326 36.2 0533 0.00 171.60 0.0 93.7 6.5 22.7 2308 SW | 215 67 15 37.2 0.0 12.9
5/3/22 53.9 1521 20.2 0612 0.00 171.60 0.0 95.3 4.2 16.7 0258 NE | 40 84 27 28.7 10.3 12.9
5/2/22 39.2 0137 25.9 2355 0.00 171.60 0.0 96.7 15.0 51.8 0940 SE | 126 99 36 29.9 3.9 13.0
5/1/22 47.1 1701 28.4 0847 0.00 171.60 0.0 97.1 5.6 24.2 0028 SSE | 149 100 18 29.9 3.3 13.0
4/30/22 45.5 1355 33.3 2346 0.00 171.60 0.0 98.2 9.2 24.8 1459 SSW | 206 94 38 34.7 0.0 12.9
4/29/22 56.8 1453 23.2 0140 0.00 171.60 0.0 99.4 2.8 15.1 1805 SW | 217 94 14 30.7 9.0 12.9
4/28/22 34.8 1504 24.4 2222 0.00 171.60 0.0 101.5 10.0 34.1 0134 WSW | 253 85 38 24.8 21.4 13.0
4/27/22 44.1 1550 31.0 2344 0.00 171.60 0.0 103.0 9.8 26.2 1337 SW | 218 68 25 29.5 6.0 13.0
4/26/22 46.8 1545 34.4 0524 0.00 171.60 0.1 105.5 9.1 37.9 0428 ESE | 104 81 32 32.4 0.8 13.0
4/25/22 47.6 1525 32.9 0138 0.00 171.60 0.0 108.0 6.3 24.7 1600 SW | 236 71 30 32.6 0.5 13.0
4/24/22 52.8 1340 26.8 0612 0.00 171.60 0.0 111.7 3.5 14.9 1004 ESE | 106 72 22 30.4 8.3 13.0
4/23/22 45.7 1601 22.2 0518 0.00 171.60 0.0 116.6 3.4 14.2 2303 ENE | 59 100 42 28.0 11.1 13.0
4/22/22 31.7 1300 17.9 0713 0.63 171.60 0.0 120.7 5.1 19.4 0102 E | 89 100 94 24.1 18.4 13.0
4/21/22 28.8 0014 20.9 2311 1.79 171.00 36.9 127.1 9.9 36.2 0415 NNE | 32 100 95 25.0 23.1 12.2
4/20/22 35.2 1346 24.6 0637 0.00 169.20 1.3 97.5 13.5 44.8 1102 E | 93 100 64 27.7 13.0 13.0
Max 71.6 - 46.3 - 1.79 173.20 36.9 127.1 15.3 51.8 - - 100 95 42.3 24.0 13.1
Avg - - - - - - 3.3 97.0 8.1 - - - - - 30.9 - -
Min 25.0 - 14.3 - 0.00 169.20 0.0 77.7 2.7 13.3 - - 56 12 17.2 0.0 12.2
Calm: 0.0%
Calm: 0.0%